sensor_id;sensor_type;location;lat;lon;timestamp;pressure;altitude;pressure_sealevel;temperature
73894;BMP280;62699;50.534;12.784;2023-04-05T00:00:20;96941.63;;;-1.37
73894;BMP280;62699;50.534;12.784;2023-04-05T00:05:21;96943.88;;;-1.35
73894;BMP280;62699;50.534;12.784;2023-04-05T00:10:29;96937.50;;;-1.38
73894;BMP280;62699;50.534;12.784;2023-04-05T00:15:31;96923.53;;;-1.38
73894;BMP280;62699;50.534;12.784;2023-04-05T00:20:32;96930.28;;;-1.34
73894;BMP280;62699;50.534;12.784;2023-04-05T00:25:36;96923.16;;;-1.33
73894;BMP280;62699;50.534;12.784;2023-04-05T00:30:36;96923.47;;;-1.28
73894;BMP280;62699;50.534;12.784;2023-04-05T00:35:36;96928.75;;;-1.28
73894;BMP280;62699;50.534;12.784;2023-04-05T00:40:37;96923.44;;;-1.24
73894;BMP280;62699;50.534;12.784;2023-04-05T00:45:37;96913.63;;;-1.24
73894;BMP280;62699;50.534;12.784;2023-04-05T00:50:37;96921.09;;;-1.19
73894;BMP280;62699;50.534;12.784;2023-04-05T00:55:39;96916.53;;;-1.15
73894;BMP280;62699;50.534;12.784;2023-04-05T01:00:41;96906.72;;;-1.14
73894;BMP280;62699;50.534;12.784;2023-04-05T01:05:46;96905.97;;;-1.15
73894;BMP280;62699;50.534;12.784;2023-04-05T01:10:52;96896.19;;;-1.18
73894;BMP280;62699;50.534;12.784;2023-04-05T01:15:54;96886.31;;;-1.14
73894;BMP280;62699;50.534;12.784;2023-04-05T01:21:10;96880.66;;;-1.12
73894;BMP280;62699;50.534;12.784;2023-04-05T01:26:39;96885.94;;;-1.12
73894;BMP280;62699;50.534;12.784;2023-04-05T01:31:59;96886.25;;;-1.10
73894;BMP280;62699;50.534;12.784;2023-04-05T01:37:06;96881.72;;;-1.10
73894;BMP280;62699;50.534;12.784;2023-04-05T01:42:07;96877.94;;;-1.08
73894;BMP280;62699;50.534;12.784;2023-04-05T01:47:08;96870.41;;;-1.10
73894;BMP280;62699;50.534;12.784;2023-04-05T01:52:10;96873.06;;;-1.10
73894;BMP280;62699;50.534;12.784;2023-04-05T01:57:10;96871.16;;;-1.10
73894;BMP280;62699;50.534;12.784;2023-04-05T02:02:12;96871.97;;;-1.13
73894;BMP280;62699;50.534;12.784;2023-04-05T02:07:12;96868.16;;;-1.12
73894;BMP280;62699;50.534;12.784;2023-04-05T02:12:13;96863.59;;;-1.07
73894;BMP280;62699;50.534;12.784;2023-04-05T02:17:15;96859.44;;;-1.08
73894;BMP280;62699;50.534;12.784;2023-04-05T02:22:17;96862.50;;;-1.10
73894;BMP280;62699;50.534;12.784;2023-04-05T02:27:17;96862.56;;;-1.14
73894;BMP280;62699;50.534;12.784;2023-04-05T02:32:17;96859.09;;;-1.11
73894;BMP280;62699;50.534;12.784;2023-04-05T02:37:18;96860.59;;;-1.10
73894;BMP280;62699;50.534;12.784;2023-04-05T02:42:19;96856.06;;;-1.09
73894;BMP280;62699;50.534;12.784;2023-04-05T02:47:20;96862.09;;;-1.08
73894;BMP280;62699;50.534;12.784;2023-04-05T02:52:20;96850.03;;;-1.10
73894;BMP280;62699;50.534;12.784;2023-04-05T02:57:21;96850.03;;;-1.10
73894;BMP280;62699;50.534;12.784;2023-04-05T03:02:21;96847.84;;;-1.15
73894;BMP280;62699;50.534;12.784;2023-04-05T03:07:21;96850.50;;;-1.18
73894;BMP280;62699;50.534;12.784;2023-04-05T03:12:25;96845.25;;;-1.22
73894;BMP280;62699;50.534;12.784;2023-04-05T03:17:26;96850.22;;;-1.24
73894;BMP280;62699;50.534;12.784;2023-04-05T03:22:26;96841.16;;;-1.23
73894;BMP280;62699;50.534;12.784;2023-04-05T03:27:27;96841.16;;;-1.23
73894;BMP280;62699;50.534;12.784;2023-04-05T03:32:28;96841.91;;;-1.22
73894;BMP280;62699;50.534;12.784;2023-04-05T03:37:29;96841.09;;;-1.19
73894;BMP280;62699;50.534;12.784;2023-04-05T03:42:29;96841.09;;;-1.19
73894;BMP280;62699;50.534;12.784;2023-04-05T03:47:30;96848.00;;;-1.29
73894;BMP280;62699;50.534;12.784;2023-04-05T03:52:31;96849.94;;;-1.33
73894;BMP280;62699;50.534;12.784;2023-04-05T03:57:31;96844.66;;;-1.33
73894;BMP280;62699;50.534;12.784;2023-04-05T04:02:31;96838.66;;;-1.40
73894;BMP280;62699;50.534;12.784;2023-04-05T04:07:31;96847.41;;;-1.43
73894;BMP280;62699;50.534;12.784;2023-04-05T04:12:32;96844.47;;;-1.53
73894;BMP280;62699;50.534;12.784;2023-04-05T04:17:35;96831.69;;;-1.54
73894;BMP280;62699;50.534;12.784;2023-04-05T04:22:36;96834.72;;;-1.59
73894;BMP280;62699;50.534;12.784;2023-04-05T04:27:41;96827.25;;;-1.64
73894;BMP280;62699;50.534;12.784;2023-04-05T04:32:42;96826.50;;;-1.65
73894;BMP280;62699;50.534;12.784;2023-04-05T04:37:59;96829.63;;;-1.73
73894;BMP280;62699;50.534;12.784;2023-04-05T04:42:59;96828.53;;;-1.79
73894;BMP280;62699;50.534;12.784;2023-04-05T04:48:00;96833.81;;;-1.79
73894;BMP280;62699;50.534;12.784;2023-04-05T04:53:03;96839.09;;;-1.79
73894;BMP280;62699;50.534;12.784;2023-04-05T04:58:04;96836.47;;;-1.83
73894;BMP280;62699;50.534;12.784;2023-04-05T05:03:09;96844.41;;;-1.87
73894;BMP280;62699;50.534;12.784;2023-04-05T05:08:15;96842.16;;;-1.88
73894;BMP280;62699;50.534;12.784;2023-04-05T05:13:15;96848.19;;;-1.84
73894;BMP280;62699;50.534;12.784;2023-04-05T05:18:16;96844.72;;;-1.77
73894;BMP280;62699;50.534;12.784;2023-04-05T05:23:16;96839.81;;;-1.75
73894;BMP280;62699;50.534;12.784;2023-04-05T05:28:17;96832.59;;;-1.71
73894;BMP280;62699;50.534;12.784;2023-04-05T05:33:18;96840.78;;;-1.62
73894;BMP280;62699;50.534;12.784;2023-04-05T05:38:18;96833.22;;;-1.60
73894;BMP280;62699;50.534;12.784;2023-04-05T05:43:20;96839.94;;;-1.52
73894;BMP280;62699;50.534;12.784;2023-04-05T05:48:21;96844.34;;;-1.42
73894;BMP280;62699;50.534;12.784;2023-04-05T05:53:21;96844.88;;;-1.20
73894;BMP280;62699;50.534;12.784;2023-04-05T05:58:21;96839.47;;;-1.10
73894;BMP280;62699;50.534;12.784;2023-04-05T06:03:22;96832.59;;;-1.03
73894;BMP280;62699;50.534;12.784;2023-04-05T06:08:23;96835.50;;;-0.94
73894;BMP280;62699;50.534;12.784;2023-04-05T06:13:26;96840.94;;;-0.78
73894;BMP280;62699;50.534;12.784;2023-04-05T06:18:27;96837.84;;;-0.73
73894;BMP280;62699;50.534;12.784;2023-04-05T06:23:28;96838.09;;;-0.64
73894;BMP280;62699;50.534;12.784;2023-04-05T06:28:29;96840.88;;;-0.48
73894;BMP280;62699;50.534;12.784;2023-04-05T06:33:30;96844.50;;;-0.38
73894;BMP280;62699;50.534;12.784;2023-04-05T06:38:32;96841.34;;;-0.03
73894;BMP280;62699;50.534;12.784;2023-04-05T06:43:33;96847.47;;;0.54
73894;BMP280;62699;50.534;12.784;2023-04-05T06:48:33;96840.91;;;1.18
73894;BMP280;62699;50.534;12.784;2023-04-05T06:53:34;96841.91;;;5.13
73894;BMP280;62699;50.534;12.784;2023-04-05T06:58:34;96852.47;;;9.88
73894;BMP280;62699;50.534;12.784;2023-04-05T07:03:36;96855.81;;;11.62
73894;BMP280;62699;50.534;12.784;2023-04-05T07:08:36;96864.22;;;12.98
73894;BMP280;62699;50.534;12.784;2023-04-05T07:13:36;96850.78;;;12.48
73894;BMP280;62699;50.534;12.784;2023-04-05T07:18:38;96851.88;;;11.46
73894;BMP280;62699;50.534;12.784;2023-04-05T07:23:40;96842.50;;;9.48
73894;BMP280;62699;50.534;12.784;2023-04-05T07:28:40;96836.69;;;7.39
73894;BMP280;62699;50.534;12.784;2023-04-05T07:33:41;96837.53;;;6.55
73894;BMP280;62699;50.534;12.784;2023-04-05T07:38:41;96837.44;;;6.74
73894;BMP280;62699;50.534;12.784;2023-04-05T07:43:42;96835.19;;;6.90
73894;BMP280;62699;50.534;12.784;2023-04-05T07:48:42;96834.59;;;6.86
73894;BMP280;62699;50.534;12.784;2023-04-05T07:53:42;96838.78;;;6.27
73894;BMP280;62699;50.534;12.784;2023-04-05T07:58:43;96837.63;;;6.10
73894;BMP280;62699;50.534;12.784;2023-04-05T08:03:43;96831.06;;;6.11
73894;BMP280;62699;50.534;12.784;2023-04-05T08:08:45;96829.00;;;5.69
73894;BMP280;62699;50.534;12.784;2023-04-05T08:13:46;96832.53;;;6.12
73894;BMP280;62699;50.534;12.784;2023-04-05T08:18:46;96834.91;;;5.73
73894;BMP280;62699;50.534;12.784;2023-04-05T08:23:47;96824.69;;;5.81
73894;BMP280;62699;50.534;12.784;2023-04-05T08:28:49;96839.06;;;5.38
73894;BMP280;62699;50.534;12.784;2023-04-05T08:33:50;96821.56;;;5.64
73894;BMP280;62699;50.534;12.784;2023-04-05T08:38:50;96824.09;;;9.21
73894;BMP280;62699;50.534;12.784;2023-04-05T08:43:56;96821.13;;;7.90
73894;BMP280;62699;50.534;12.784;2023-04-05T08:49:03;96831.03;;;6.38
73894;BMP280;62699;50.534;12.784;2023-04-05T08:54:07;96824.78;;;7.16
73894;BMP280;62699;50.534;12.784;2023-04-05T08:59:09;96820.25;;;6.56
73894;BMP280;62699;50.534;12.784;2023-04-05T09:04:21;96812.81;;;5.73
73894;BMP280;62699;50.534;12.784;2023-04-05T09:09:23;96816.81;;;5.96
73894;BMP280;62699;50.534;12.784;2023-04-05T09:14:26;96819.91;;;5.39
73894;BMP280;62699;50.534;12.784;2023-04-05T09:19:28;96821.25;;;4.55
73894;BMP280;62699;50.534;12.784;2023-04-05T09:24:36;96820.09;;;4.65
73894;BMP280;62699;50.534;12.784;2023-04-05T09:29:47;96814.84;;;4.83
73894;BMP280;62699;50.534;12.784;2023-04-05T09:34:52;96812.94;;;4.53
73894;BMP280;62699;50.534;12.784;2023-04-05T09:40:03;96817.69;;;4.89
73894;BMP280;62699;50.534;12.784;2023-04-05T09:45:08;96817.88;;;4.42
73894;BMP280;62699;50.534;12.784;2023-04-05T09:55:13;96820.97;;;4.62
73894;BMP280;62699;50.534;12.784;2023-04-05T10:00:18;96819.00;;;4.10
73894;BMP280;62699;50.534;12.784;2023-04-05T10:05:22;96814.13;;;4.61
73894;BMP280;62699;50.534;12.784;2023-04-05T10:10:23;96813.19;;;5.26
73894;BMP280;62699;50.534;12.784;2023-04-05T10:15:25;96816.09;;;5.00
73894;BMP280;62699;50.534;12.784;2023-04-05T10:20:26;96809.25;;;4.99
73894;BMP280;62699;50.534;12.784;2023-04-05T10:31:11;96805.34;;;4.82
73894;BMP280;62699;50.534;12.784;2023-04-05T10:41:44;96797.63;;;5.42
73894;BMP280;62699;50.534;12.784;2023-04-05T10:46:46;96800.94;;;5.83
73894;BMP280;62699;50.534;12.784;2023-04-05T10:51:47;96798.53;;;6.12
73894;BMP280;62699;50.534;12.784;2023-04-05T10:56:47;96797.34;;;6.04
73894;BMP280;62699;50.534;12.784;2023-04-05T11:01:49;96794.84;;;6.01
73894;BMP280;62699;50.534;12.784;2023-04-05T11:07:16;96803.63;;;5.65
73894;BMP280;62699;50.534;12.784;2023-04-05T11:12:17;96801.09;;;5.70
73894;BMP280;62699;50.534;12.784;2023-04-05T11:17:25;96792.91;;;6.01
73894;BMP280;62699;50.534;12.784;2023-04-05T11:22:28;96793.31;;;6.69
73894;BMP280;62699;50.534;12.784;2023-04-05T11:27:33;96793.91;;;6.73
73894;BMP280;62699;50.534;12.784;2023-04-05T11:32:43;96780.91;;;5.88
73894;BMP280;62699;50.534;12.784;2023-04-05T11:37:55;96778.19;;;6.06
73894;BMP280;62699;50.534;12.784;2023-04-05T11:43:10;96772.47;;;6.31
73894;BMP280;62699;50.534;12.784;2023-04-05T11:48:12;96771.38;;;6.05
73894;BMP280;62699;50.534;12.784;2023-04-05T11:53:14;96767.09;;;6.49
73894;BMP280;62699;50.534;12.784;2023-04-05T11:58:20;96764.56;;;6.46
73894;BMP280;62699;50.534;12.784;2023-04-05T12:03:23;96758.84;;;6.95
73894;BMP280;62699;50.534;12.784;2023-04-05T12:08:40;96752.41;;;7.25
73894;BMP280;62699;50.534;12.784;2023-04-05T12:13:41;96749.31;;;6.37
73894;BMP280;62699;50.534;12.784;2023-04-05T12:18:41;96744.28;;;6.21
73894;BMP280;62699;50.534;12.784;2023-04-05T12:23:41;96753.00;;;6.73
73894;BMP280;62699;50.534;12.784;2023-04-05T12:28:56;96755.81;;;7.49
73894;BMP280;62699;50.534;12.784;2023-04-05T12:33:58;96748.09;;;8.10
73894;BMP280;62699;50.534;12.784;2023-04-05T12:38:59;96752.56;;;7.45
73894;BMP280;62699;50.534;12.784;2023-04-05T12:44:04;96732.97;;;7.01
73894;BMP280;62699;50.534;12.784;2023-04-05T12:49:05;96730.09;;;7.43
73894;BMP280;62699;50.534;12.784;2023-04-05T12:54:06;96732.53;;;7.56
73894;BMP280;62699;50.534;12.784;2023-04-05T12:59:07;96719.72;;;7.89
73894;BMP280;62699;50.534;12.784;2023-04-05T13:04:07;96719.66;;;7.30
73894;BMP280;62699;50.534;12.784;2023-04-05T13:09:07;96709.47;;;7.20
73894;BMP280;62699;50.534;12.784;2023-04-05T13:14:07;96697.47;;;6.68
73894;BMP280;62699;50.534;12.784;2023-04-05T13:19:08;96699.25;;;6.94
73894;BMP280;62699;50.534;12.784;2023-04-05T13:24:08;96696.22;;;6.78
73894;BMP280;62699;50.534;12.784;2023-04-05T13:29:09;96704.69;;;7.00
73894;BMP280;62699;50.534;12.784;2023-04-05T13:34:09;96690.97;;;7.60
73894;BMP280;62699;50.534;12.784;2023-04-05T13:39:09;96685.38;;;7.20
73894;BMP280;62699;50.534;12.784;2023-04-05T13:44:10;96688.25;;;7.45
73894;BMP280;62699;50.534;12.784;2023-04-05T13:49:10;96676.53;;;7.58
73894;BMP280;62699;50.534;12.784;2023-04-05T13:54:10;96678.41;;;7.81
73894;BMP280;62699;50.534;12.784;2023-04-05T13:59:11;96675.25;;;7.97
73894;BMP280;62699;50.534;12.784;2023-04-05T14:04:17;96670.78;;;6.82
73894;BMP280;62699;50.534;12.784;2023-04-05T14:09:17;96667.69;;;6.51
73894;BMP280;62699;50.534;12.784;2023-04-05T14:14:18;96663.47;;;6.59
73894;BMP280;62699;50.534;12.784;2023-04-05T14:19:19;96661.03;;;6.94
73894;BMP280;62699;50.534;12.784;2023-04-05T14:24:21;96648.84;;;7.61
73894;BMP280;62699;50.534;12.784;2023-04-05T14:29:21;96641.25;;;7.30
73894;BMP280;62699;50.534;12.784;2023-04-05T14:34:23;96635.47;;;6.45
73894;BMP280;62699;50.534;12.784;2023-04-05T14:39:23;96637.88;;;6.91
73894;BMP280;62699;50.534;12.784;2023-04-05T14:44:24;96637.78;;;7.00
73894;BMP280;62699;50.534;12.784;2023-04-05T14:49:26;96637.06;;;7.14
73894;BMP280;62699;50.534;12.784;2023-04-05T14:54:26;96628.50;;;7.25
73894;BMP280;62699;50.534;12.784;2023-04-05T14:59:27;96624.16;;;7.27
73894;BMP280;62699;50.534;12.784;2023-04-05T15:04:27;96622.50;;;6.77
73894;BMP280;62699;50.534;12.784;2023-04-05T15:09:27;96618.22;;;7.23
73894;BMP280;62699;50.534;12.784;2023-04-05T15:14:28;96610.84;;;7.33
73894;BMP280;62699;50.534;12.784;2023-04-05T15:19:28;96620.19;;;7.37
73894;BMP280;62699;50.534;12.784;2023-04-05T15:24:31;96606.88;;;7.14
73894;BMP280;62699;50.534;12.784;2023-04-05T15:29:31;96614.53;;;6.68
73894;BMP280;62699;50.534;12.784;2023-04-05T15:34:32;96611.09;;;6.19
73894;BMP280;62699;50.534;12.784;2023-04-05T15:39:32;96615.97;;;6.21
73894;BMP280;62699;50.534;12.784;2023-04-05T15:44:32;96626.03;;;5.93
73894;BMP280;62699;50.534;12.784;2023-04-05T15:49:33;96627.19;;;5.59
73894;BMP280;62699;50.534;12.784;2023-04-05T15:54:33;96621.16;;;5.40
73894;BMP280;62699;50.534;12.784;2023-04-05T15:59:33;96620.41;;;5.40
73894;BMP280;62699;50.534;12.784;2023-04-05T16:04:33;96618.34;;;5.35
73894;BMP280;62699;50.534;12.784;2023-04-05T16:09:34;96629.63;;;5.39
73894;BMP280;62699;50.534;12.784;2023-04-05T16:14:34;96619.81;;;5.36
73894;BMP280;62699;50.534;12.784;2023-04-05T16:19:34;96618.31;;;5.26
73894;BMP280;62699;50.534;12.784;2023-04-05T16:24:34;96622.50;;;5.27
73894;BMP280;62699;50.534;12.784;2023-04-05T16:29:37;96626.34;;;5.26
73894;BMP280;62699;50.534;12.784;2023-04-05T16:34:37;96622.34;;;5.21
73894;BMP280;62699;50.534;12.784;2023-04-05T16:39:37;96626.34;;;5.17
73894;BMP280;62699;50.534;12.784;2023-04-05T16:44:37;96621.31;;;5.19
73894;BMP280;62699;50.534;12.784;2023-04-05T16:49:38;96622.66;;;5.05
73894;BMP280;62699;50.534;12.784;2023-04-05T16:54:38;96626.66;;;5.00
73894;BMP280;62699;50.534;12.784;2023-04-05T16:59:39;96627.22;;;4.95
73894;BMP280;62699;50.534;12.784;2023-04-05T17:04:40;96615.09;;;4.85
73894;BMP280;62699;50.534;12.784;2023-04-05T17:09:40;96625.59;;;4.80
73894;BMP280;62699;50.534;12.784;2023-04-05T17:14:41;96620.84;;;4.75
73894;BMP280;62699;50.534;12.784;2023-04-05T17:19:41;96631.50;;;4.66
73894;BMP280;62699;50.534;12.784;2023-04-05T17:24:44;96626.31;;;4.62
73894;BMP280;62699;50.534;12.784;2023-04-05T17:29:45;96627.16;;;4.59
73894;BMP280;62699;50.534;12.784;2023-04-05T17:34:46;96625.41;;;4.56
73894;BMP280;62699;50.534;12.784;2023-04-05T17:39:46;96625.69;;;4.49
73894;BMP280;62699;50.534;12.784;2023-04-05T17:44:46;96630.84;;;4.43
73894;BMP280;62699;50.534;12.784;2023-04-05T17:49:46;96640.03;;;4.33
73894;BMP280;62699;50.534;12.784;2023-04-05T17:54:47;96638.06;;;4.25
73894;BMP280;62699;50.534;12.784;2023-04-05T17:59:47;96642.00;;;4.11
73894;BMP280;62699;50.534;12.784;2023-04-05T18:04:49;96639.41;;;3.98
73894;BMP280;62699;50.534;12.784;2023-04-05T18:09:51;96647.34;;;3.89
73894;BMP280;62699;50.534;12.784;2023-04-05T18:14:52;96650.38;;;3.78
73894;BMP280;62699;50.534;12.784;2023-04-05T18:19:53;96654.38;;;3.74
73894;BMP280;62699;50.534;12.784;2023-04-05T18:24:54;96661.44;;;3.68
73894;BMP280;62699;50.534;12.784;2023-04-05T18:29:54;96661.88;;;3.66
73894;BMP280;62699;50.534;12.784;2023-04-05T18:34:55;96666.25;;;3.60
73894;BMP280;62699;50.534;12.784;2023-04-05T18:39:55;96665.94;;;3.58
73894;BMP280;62699;50.534;12.784;2023-04-05T18:44:55;96674.75;;;3.46
73894;BMP280;62699;50.534;12.784;2023-04-05T18:49:55;96679.34;;;3.46
73894;BMP280;62699;50.534;12.784;2023-04-05T18:54:56;96689.34;;;3.41
73894;BMP280;62699;50.534;12.784;2023-04-05T18:59:57;96683.53;;;3.34
73894;BMP280;62699;50.534;12.784;2023-04-05T19:04:57;96685.06;;;3.22
73894;BMP280;62699;50.534;12.784;2023-04-05T19:09:59;96682.94;;;3.17
73894;BMP280;62699;50.534;12.784;2023-04-05T19:15:00;96697.41;;;3.16
73894;BMP280;62699;50.534;12.784;2023-04-05T19:20:00;96697.22;;;3.11
73894;BMP280;62699;50.534;12.784;2023-04-05T19:25:00;96701.03;;;3.10
73894;BMP280;62699;50.534;12.784;2023-04-05T19:30:02;96707.66;;;3.05
73894;BMP280;62699;50.534;12.784;2023-04-05T19:35:03;96707.22;;;2.94
73894;BMP280;62699;50.534;12.784;2023-04-05T19:40:05;96703.53;;;2.79
73894;BMP280;62699;50.534;12.784;2023-04-05T19:45:07;96706.84;;;2.57
73894;BMP280;62699;50.534;12.784;2023-04-05T19:50:33;96700.13;;;2.28
73894;BMP280;62699;50.534;12.784;2023-04-05T19:55:37;96702.50;;;1.97
73894;BMP280;62699;50.534;12.784;2023-04-05T20:00:44;96700.41;;;1.75
73894;BMP280;62699;50.534;12.784;2023-04-05T20:06:11;96699.72;;;1.59
73894;BMP280;62699;50.534;12.784;2023-04-05T20:11:19;96697.75;;;1.46
73894;BMP280;62699;50.534;12.784;2023-04-05T20:16:25;96682.00;;;1.39
73894;BMP280;62699;50.534;12.784;2023-04-05T20:21:25;96681.88;;;1.30
73894;BMP280;62699;50.534;12.784;2023-04-05T20:26:29;96686.03;;;1.31
73894;BMP280;62699;50.534;12.784;2023-04-05T20:31:33;96683.78;;;1.30
73894;BMP280;62699;50.534;12.784;2023-04-05T20:36:46;96676.66;;;1.27
73894;BMP280;62699;50.534;12.784;2023-04-05T20:41:47;96677.81;;;1.26
73894;BMP280;62699;50.534;12.784;2023-04-05T20:46:50;96668.03;;;1.23
73894;BMP280;62699;50.534;12.784;2023-04-05T20:51:52;96676.84;;;1.20
73894;BMP280;62699;50.534;12.784;2023-04-05T20:56:56;96679.63;;;1.12
73894;BMP280;62699;50.534;12.784;2023-04-05T21:01:56;96667.72;;;1.04
73894;BMP280;62699;50.534;12.784;2023-04-05T21:06:56;96668.63;;;0.98
73894;BMP280;62699;50.534;12.784;2023-04-05T21:11:57;96674.69;;;0.98
73894;BMP280;62699;50.534;12.784;2023-04-05T21:16:57;96672.78;;;0.99
73894;BMP280;62699;50.534;12.784;2023-04-05T21:21:57;96671.19;;;0.85
73894;BMP280;62699;50.534;12.784;2023-04-05T21:26:57;96669.69;;;0.84
73894;BMP280;62699;50.534;12.784;2023-04-05T21:31:58;96663.06;;;0.76
73894;BMP280;62699;50.534;12.784;2023-04-05T21:36:58;96663.06;;;0.76
73894;BMP280;62699;50.534;12.784;2023-04-05T21:41:58;96664.75;;;0.70
73894;BMP280;62699;50.534;12.784;2023-04-05T21:46:58;96656.47;;;0.68
73894;BMP280;62699;50.534;12.784;2023-04-05T21:52:00;96657.09;;;0.72
73894;BMP280;62699;50.534;12.784;2023-04-05T21:57:01;96657.09;;;0.72
73894;BMP280;62699;50.534;12.784;2023-04-05T22:02:01;96650.56;;;0.77
73894;BMP280;62699;50.534;12.784;2023-04-05T22:07:02;96644.88;;;0.78
73894;BMP280;62699;50.534;12.784;2023-04-05T22:12:02;96639.56;;;0.78
73894;BMP280;62699;50.534;12.784;2023-04-05T22:17:03;96638.91;;;0.74
73894;BMP280;62699;50.534;12.784;2023-04-05T22:22:03;96648.16;;;0.66
73894;BMP280;62699;50.534;12.784;2023-04-05T22:27:04;96644.53;;;0.60
73894;BMP280;62699;50.534;12.784;2023-04-05T22:32:05;96641.63;;;0.54
73894;BMP280;62699;50.534;12.784;2023-04-05T22:37:05;96638.72;;;0.49
73894;BMP280;62699;50.534;12.784;2023-04-05T22:42:06;96640.34;;;0.43
73894;BMP280;62699;50.534;12.784;2023-04-05T22:47:06;96637.03;;;0.38
73894;BMP280;62699;50.534;12.784;2023-04-05T22:52:09;96632.97;;;0.34
73894;BMP280;62699;50.534;12.784;2023-04-05T22:57:11;96637.53;;;0.33
73894;BMP280;62699;50.534;12.784;2023-04-05T23:02:11;96636.38;;;0.34
73894;BMP280;62699;50.534;12.784;2023-04-05T23:07:12;96625.78;;;0.34
73894;BMP280;62699;50.534;12.784;2023-04-05T23:12:12;96627.69;;;0.34
73894;BMP280;62699;50.534;12.784;2023-04-05T23:17:14;96639.00;;;0.34
73894;BMP280;62699;50.534;12.784;2023-04-05T23:22:15;96633.25;;;0.40
73894;BMP280;62699;50.534;12.784;2023-04-05T23:27:17;96631.34;;;0.40
73894;BMP280;62699;50.534;12.784;2023-04-05T23:32:19;96629.09;;;0.38
73894;BMP280;62699;50.534;12.784;2023-04-05T23:37:20;96621.50;;;0.41
73894;BMP280;62699;50.534;12.784;2023-04-05T23:42:20;96620.66;;;0.44
73894;BMP280;62699;50.534;12.784;2023-04-05T23:47:21;96619.84;;;0.47
73894;BMP280;62699;50.534;12.784;2023-04-05T23:52:22;96612.88;;;0.53
73894;BMP280;62699;50.534;12.784;2023-04-05T23:57:24;96613.56;;;0.57
